Portada
METAR-TAF:

METAR-TAF

Aeroports :

Natal, Rio Grande do Norte, Brasil

latitud: 05-55S, longitud: 035-15W, altitud: 52 m

Observació

L'informe es va fer fa 41 minuts, a les 23:00 UTC
Vent 5 kt del Sud/Sud-Est
Temperatura 24°C
Humitat 83%
Pressió 1014 hPa
Visibilitat 10 km o més
Escasses núvols a una alçada de 2300 ft

METAR: SBNT 292300Z 15005KT 9999 FEW023 24/21 Q1014

Hora: 20:41 (23:41 UTC)

Pronòstic

L'informe es va fer fa 8 hores i 41 minuts, a les 15:00 UTC
Pronòstic vàlid del 29 a les 18 UTC al 30 a les 06 UTC
Vent 15 kt del Est/Sud-Est
Visibilitat 10 km o més
Escasses núvols a una alçada de 2500 ft
Evolucionant progressivament
l' 30 a les 02 UTC al 30 a les 04 UTC
Vent 5 kt del Sud/Sud-Est

TAF: SBNT 291500Z 2918/3006 12015KT 9999 FEW025 TX29/2918Z TN23/3006Z BECMG 3002/3004 16005KT RMK PHD

Observacions i pronòstics meteorològics de més de 4000 aeroports (METAR i TAF).

Les estacions disponibles són els punts grocs i vermells al mapa.

Posi el ratolí al punt desitjat per veure el nom de l'estació.

Feu clic per veure les observacions i els pronòstics meteorològics.

Per canviar el mapa: feu clic els botons verds amb una creu de color negre per apropar; al botó verd amb un guió per allunyar la imatge; o en les fletxes verdes per a mapes adjacents.


METAR-TAF: